Nearby Airport METAR Reports

 

KVSF - Springfield, Vermont, USA
Distance from station: WSW 8mi, 12km
Updated: 4:54pm
Clear
Clear
 Wind from calm
Wind: Calm
Temperature: 46°F , 8°C
Dew Point: 28°F , -2°C
Humidity: 50%
Barometer: 29.91 inHg , 1012.9 hPa
Clouds: Clear
Visibility: 10 miles , 16 km
2017/11/21 21:54 KVSF 212154Z AUTO 00000KT 10SM CLR 08/M02 A2991 RMK AO2 SLP136 T00781022
KLEB - Lebanon, New Hampshire, USA
Distance from station: N 18mi, 29km
Updated: 4:53pm
Clear
Clear
 Wind from S
Wind: S 10 mph , 17 km/h, Gust: 20 mph , 31 km/h
Temperature: 50°F , 10°C
Wind Chill: 46°F , 8°C
Dew Point: 27°F , -3°C
Humidity: 40%
Barometer: 29.88 inHg , 1011.9 hPa
Clouds: Clear
Visibility: 10 miles , 16 km
2017/11/21 21:53 KLEB 212153Z 18009G17KT 10SM CLR 10/M03 A2988 RMK AO2 SLP125 T01001028
KRUT - Rutland State, Vermont, USA
Distance from station: WNW 31mi, 50km
Updated: 4:56pm
Clear
Clear
 Wind from S
Wind: S 9 mph , 15 km/h
Temperature: 52°F , 11°C
Dew Point: 18°F , -8°C
Humidity: 26%
Barometer: 29.88 inHg , 1011.9 hPa
Clouds: Clear
Visibility: 10 miles , 16 km
2017/11/21 21:56 KRUT 212156Z AUTO 17008KT 10SM CLR 11/M08 A2988 RMK AO2 SLP140 T01061078 $
 
KEEN - Keene/Dillant, New Hampshire, USA
Distance from station: S 34mi, 55km
Updated: 4:56pm
Clear
Clear
 Wind from S
Wind: S 9 mph , 15 km/h
Temperature: 48°F , 9°C
Wind Chill: 44°F , 7°C
Dew Point: 30°F , -1°C
Humidity: 50%
Barometer: 29.95 inHg , 1014.2 hPa
Clouds: Clear
Visibility: 10 miles , 16 km
2017/11/21 21:56 KEEN 212156Z AUTO 17008KT 10SM CLR 09/M01 A2995 RMK AO2 SLP161 T00941011
K1P1 - Plymouth, New Hampshire, USA
Distance from station: NE 42mi, 67km
Updated: 5:55pm
Clear
Clear
 Wind from calm
Wind: Calm
Temperature: 32°F , 0°C
Dew Point: 28°F , -2°C
Humidity: 87%
Barometer: 29.93 inHg , 1013.5 hPa
Clouds: Clear
Visibility: 10 miles , 16 km
2017/11/21 22:55 K1P1 212255Z AUTO 00000KT 10SM CLR 00/M02 A2993 RMK AO2 T10051020
KAFN - Jaffrey, New Hampshire, USA
Distance from station: SSE 44mi, 70km
Updated: 4:52pm
Clear
Clear
 Wind from SSW
Wind: SSW 9 mph , 15 km/h
Temperature: 48°F , 9°C
Wind Chill: 44°F , 7°C
Dew Point: 30°F , -1°C
Humidity: 50%
Barometer: 29.95 inHg , 1014.2 hPa
Clouds: Clear
Visibility: 10 miles , 16 km
2017/11/21 21:52 KAFN 212152Z AUTO 21008KT 10SM CLR 09/M01 A2995 RMK AO2 SLP154 T00941006 TSNO
 
KCON - Concord, New Hampshire, USA
Distance from station: ESE 45mi, 73km
Updated: 5:51pm
Clear
Clear
 Wind from S
Wind: S 9 mph , 15 km/h
Temperature: 50°F , 10°C
Wind Chill: 46°F , 8°C
Dew Point: 28°F , -2°C
Humidity: 43%
Barometer: 29.94 inHg , 1013.9 hPa
Clouds: Clear
Visibility: 10 miles , 16 km
2017/11/21 22:51 KCON 212251Z AUTO 18008KT 10SM CLR 10/M02 A2994 RMK AO2 SLP143 T01001017
KLCI - Laconia Muni, New Hampshire, USA
Distance from station: ENE 49mi, 80km
Updated: 4:56pm
Clear
Clear
 Wind from SW
Wind: SW 10 mph , 17 km/h
Temperature: 50°F , 10°C
Wind Chill: 46°F , 8°C
Dew Point: 25°F , -4°C
Humidity: 37%
Barometer: 29.92 inHg , 1013.2 hPa
Clouds: Clear
Visibility: 10 miles , 16 km
2017/11/21 21:56 KLCI 212156Z AUTO 23009KT 10SM CLR 10/M04 A2992 RMK AO2 SLP152 T01001039
KDDH - Bennington, Vermont, USA
Distance from station: SW 55mi, 89km
Updated: 4:54pm
Clear
Clear
 Wind from S
Wind: S 10 mph , 17 km/h, Gust: 26 mph , 43 km/h
Temperature: 52°F , 11°C
Dew Point: 21°F , -6°C
Humidity: 30%
Barometer: 29.91 inHg , 1012.9 hPa
Clouds: Clear
Visibility: 10 miles , 16 km
2017/11/21 21:54 KDDH 212154Z AUTO 18009G23KT 10SM CLR 11/M06 A2991 RMK AO2 SLP133 T01111056
 
K6B0 - Middlebury, Vermont, USA
Distance from station: NW 56mi, 90km
Updated: 5:35pm
Clear
Clear
 Wind from ESE
Wind: ESE 3 mph , 6 km/h
Temperature: 37°F , 3°C
Dew Point: 28°F , -2°C
Humidity: 70%
Barometer: 29.88 inHg , 1011.9 hPa
Clouds: Clear
Visibility: 10 miles , 16 km
2017/11/21 22:35 K6B0 212235Z AUTO 12003KT 10SM CLR 03/M02 A2988 RMK AO2 T00341020
KMHT - Manchester, New Hampshire, USA
Distance from station: ESE 56mi, 90km
Updated: 4:53pm
Partly cloudy
Partly cloudy
 Wind from S
Wind: S 13 mph , 20 km/h, Gust: 20 mph , 31 km/h
Temperature: 54°F , 12°C
Dew Point: 30°F , -1°C
Humidity: 41%
Barometer: 29.94 inHg , 1013.9 hPa
Clouds: Partly cloudy
Visibility: 10 miles , 16 km
Cloud details: Partly cloudy 25000 ft
2017/11/21 21:53 KMHT 212153Z 18011G17KT 10SM SCT250 12/M01 A2994 RMK AO2 SLP153 T01221011
KORE - Orange, Massachusetts, USA
Distance from station: S 56mi, 90km
Updated: 4:52pm
Clear
Clear
 Wind from S
Wind: S 14 mph , 22 km/h
Temperature: 50°F , 10°C
Wind Chill: 45°F , 7°C
Dew Point: 34°F , 1°C
Humidity: 54%
Barometer: 29.94 inHg , 1013.9 hPa
Clouds: Clear
Visibility: 10 miles , 16 km
2017/11/21 21:52 KORE 212152Z AUTO 18012KT 10SM CLR 10/01 A2994 RMK AO2 SLP146 T01000011 TSNO
 
KMPV - Montpelier/Barre, Vermont, USA
Distance from station: N 58mi, 93km
Updated: 5:51pm
Clear
Clear
 Wind from S
Wind: S 7 mph , 11 km/h
Temperature: 39°F , 4°C
Wind Chill: 34°F , 1°C
Dew Point: 27°F , -3°C
Humidity: 61%
Barometer: 29.90 inHg , 1012.5 hPa
Clouds: Clear
Visibility: 10 miles , 16 km
2017/11/21 22:51 KMPV 212251Z AUTO 19006KT 10SM CLR 04/M03 A2990 RMK AO2 SLP140 T00391033
KASH - Nashua/Boire Fld, New Hampshire, USA
Distance from station: SE 59mi, 95km
Updated: 4:56pm
Clear
Clear
 Wind from varies
Wind: varies 7 mph , 11 km/h
Temperature: 54°F , 12°C
Dew Point: 34°F , 1°C
Humidity: 47%
Barometer: 29.96 inHg , 1014.6 hPa
Clouds: Clear
Visibility: 10 miles , 16 km
2017/11/21 21:56 KASH 212156Z VRB06KT 10SM CLR 12/01 A2996 RMK AO2 SLP158 T01170006
KAQW - North Adams, Massachusetts, USA
Distance from station: SW 62mi, 99km
Updated: 5:52pm
Clear
Clear
 Wind from SW
Wind: SW 16 mph , 26 km/h, Gust: 30 mph , 48 km/h
Temperature: 54°F , 12°C
Dew Point: 23°F , -5°C
Humidity: 30%
Barometer: 29.92 inHg , 1013.2 hPa
Clouds: Clear
Visibility: 10 miles , 16 km
2017/11/21 22:52 KAQW 212252Z AUTO 22014G26KT 10SM CLR 12/M05 A2992 RMK AO2 PK WND 24026/2252 SLP139 T01171050
 
KGFL - Glens Falls, New York, USA
Distance from station: W 63mi, 101km
Updated: 4:53pm
Clear
Clear
 Wind from SSW
Wind: SSW 5 mph , 7 km/h
Temperature: 48°F , 9°C
Wind Chill: 46°F , 8°C
Dew Point: 27°F , -3°C
Humidity: 43%
Barometer: 29.89 inHg , 1012.2 hPa
Clouds: Clear
Visibility: 10 miles , 16 km
2017/11/21 21:53 KGFL 212153Z AUTO 21004KT 10SM CLR 09/M03 A2989 RMK AO2 SLP128 T00891033
KFIT - Fitchburg, Massachusetts, USA
Distance from station: SSE 65mi, 105km
Updated: 5:52pm
Clear
Clear
 Wind from S
Wind: S 9 mph , 15 km/h
Temperature: 52°F , 11°C
Dew Point: 36°F , 2°C
Humidity: 54%
Barometer: 29.97 inHg , 1014.9 hPa
Clouds: Clear
Visibility: 10 miles , 16 km
2017/11/21 22:52 KFIT 212252Z AUTO 19008KT 10SM CLR 11/02 A2997 RMK AO2 SLP151 T01110017
KDAW - Rochester, New Hampshire, USA
Distance from station: E 73mi, 118km
Updated: 5:51pm
Clear
Clear
 Wind from S
Wind: S 3 mph , 6 km/h
Temperature: 50°F , 10°C
Dew Point: 30°F , -1°C
Humidity: 47%
Barometer: 29.95 inHg , 1014.2 hPa
Clouds: Clear
Visibility: 10 miles , 16 km
2017/11/21 22:51 KDAW 212251Z AUTO 18003KT 10SM CLR 10/M01 A2995 RMK AO2 SLP142 T01001006
 
K1V4 - St. Johnsbury, Vermont, USA
Distance from station: NNE 74mi, 119km
Updated: 4:54pm

 
Temperature: 46°F , 8°C
Dew Point: 25°F , -4°C
Humidity: 43%
Barometer: 29.85 inHg , 1010.8 hPa
2017/11/21 21:54 K1V4 212154Z AUTO 08/M04 A2985 RMK AO1 SLP117 T00831039
KLWM - Lawrence, Massachusetts, USA
Distance from station: SE 77mi, 124km
Updated: 4:54pm
Clear
Clear
 Wind from SSW
Wind: SSW 13 mph , 20 km/h, Gust: 26 mph , 43 km/h
Temperature: 55°F , 13°C
Dew Point: 34°F , 1°C
Humidity: 44%
Barometer: 29.99 inHg , 1015.6 hPa
Clouds: Clear
Visibility: 10 miles , 16 km
2017/11/21 21:54 KLWM 212154Z 21011G23KT 10SM CLR 13/01 A2999 RMK AO2 SLP156 T01330006

free counter page views since 4/29/2009